sensor_id;sensor_type;location;lat;lon;timestamp;temperature;humidity
19403;DHT22;9837;48.888;8.998;2023-11-19T00:02:08;11.20;87.10
19403;DHT22;9837;48.888;8.998;2023-11-19T00:04:38;11.30;87.70
19403;DHT22;9837;48.888;8.998;2023-11-19T00:07:06;12.40;89.10
19403;DHT22;9837;48.888;8.998;2023-11-19T00:09:33;11.20;88.70
19403;DHT22;9837;48.888;8.998;2023-11-19T00:11:59;11.20;89.60
19403;DHT22;9837;48.888;8.998;2023-11-19T00:16:51;11.70;88.40
19403;DHT22;9837;48.888;8.998;2023-11-19T00:19:17;11.70;89.20
19403;DHT22;9837;48.888;8.998;2023-11-19T00:21:42;12.00;88.50
19403;DHT22;9837;48.888;8.998;2023-11-19T00:24:09;12.70;84.40
19403;DHT22;9837;48.888;8.998;2023-11-19T00:26:34;12.60;85.00
19403;DHT22;9837;48.888;8.998;2023-11-19T00:31:26;13.30;82.00
19403;DHT22;9837;48.888;8.998;2023-11-19T00:33:53;13.30;81.30
19403;DHT22;9837;48.888;8.998;2023-11-19T00:36:19;13.30;81.90
19403;DHT22;9837;48.888;8.998;2023-11-19T00:38:44;13.60;80.60
19403;DHT22;9837;48.888;8.998;2023-11-19T00:43:36;13.80;80.00
19403;DHT22;9837;48.888;8.998;2023-11-19T00:46:02;13.80;80.10
19403;DHT22;9837;48.888;8.998;2023-11-19T00:48:28;13.90;79.90
19403;DHT22;9837;48.888;8.998;2023-11-19T00:50:54;13.90;80.50
19403;DHT22;9837;48.888;8.998;2023-11-19T00:53:19;13.90;80.30
19403;DHT22;9837;48.888;8.998;2023-11-19T00:55:45;14.00;80.00
19403;DHT22;9837;48.888;8.998;2023-11-19T00:58:10;14.10;79.90
19403;DHT22;9837;48.888;8.998;2023-11-19T01:00:36;14.10;79.60
19403;DHT22;9837;48.888;8.998;2023-11-19T01:03:01;14.20;79.60
19403;DHT22;9837;48.888;8.998;2023-11-19T01:05:27;14.20;79.50
19403;DHT22;9837;48.888;8.998;2023-11-19T01:07:53;14.20;79.90
19403;DHT22;9837;48.888;8.998;2023-11-19T01:10:19;14.30;79.60
19403;DHT22;9837;48.888;8.998;2023-11-19T01:12:45;14.30;79.20
19403;DHT22;9837;48.888;8.998;2023-11-19T01:15:11;14.40;78.90
19403;DHT22;9837;48.888;8.998;2023-11-19T01:17:38;14.40;79.00
19403;DHT22;9837;48.888;8.998;2023-11-19T01:20:04;14.40;79.30
19403;DHT22;9837;48.888;8.998;2023-11-19T01:24:57;14.30;79.50
19403;DHT22;9837;48.888;8.998;2023-11-19T01:27:24;14.10;80.40
19403;DHT22;9837;48.888;8.998;2023-11-19T01:29:50;14.20;80.70
19403;DHT22;9837;48.888;8.998;2023-11-19T01:34:41;14.40;79.70
19403;DHT22;9837;48.888;8.998;2023-11-19T01:37:07;14.50;79.40
19403;DHT22;9837;48.888;8.998;2023-11-19T01:39:35;14.50;79.20
19403;DHT22;9837;48.888;8.998;2023-11-19T01:42:01;14.60;79.00
19403;DHT22;9837;48.888;8.998;2023-11-19T01:44:26;14.60;78.90
19403;DHT22;9837;48.888;8.998;2023-11-19T01:46:52;14.60;78.90
19403;DHT22;9837;48.888;8.998;2023-11-19T01:49:19;14.60;79.10
19403;DHT22;9837;48.888;8.998;2023-11-19T01:51:46;14.50;79.30
19403;DHT22;9837;48.888;8.998;2023-11-19T01:54:12;14.60;79.30
19403;DHT22;9837;48.888;8.998;2023-11-19T01:56:39;14.60;79.90
19403;DHT22;9837;48.888;8.998;2023-11-19T01:59:07;14.60;79.10
19403;DHT22;9837;48.888;8.998;2023-11-19T02:01:33;14.60;79.20
19403;DHT22;9837;48.888;8.998;2023-11-19T02:04:03;14.60;79.20
19403;DHT22;9837;48.888;8.998;2023-11-19T02:06:30;14.70;79.10
19403;DHT22;9837;48.888;8.998;2023-11-19T02:08:56;14.70;78.80
19403;DHT22;9837;48.888;8.998;2023-11-19T02:11:22;14.70;78.80
19403;DHT22;9837;48.888;8.998;2023-11-19T02:13:48;14.70;79.10
19403;DHT22;9837;48.888;8.998;2023-11-19T02:18:39;14.70;79.00
19403;DHT22;9837;48.888;8.998;2023-11-19T02:21:05;14.80;78.60
19403;DHT22;9837;48.888;8.998;2023-11-19T02:23:31;14.90;78.50
19403;DHT22;9837;48.888;8.998;2023-11-19T02:25:59;14.90;78.40
19403;DHT22;9837;48.888;8.998;2023-11-19T02:28:26;14.90;78.30
19403;DHT22;9837;48.888;8.998;2023-11-19T02:38:10;15.00;78.60
19403;DHT22;9837;48.888;8.998;2023-11-19T02:40:36;14.90;78.30
19403;DHT22;9837;48.888;8.998;2023-11-19T02:45:29;15.00;78.30
19403;DHT22;9837;48.888;8.998;2023-11-19T02:47:56;14.90;78.60
19403;DHT22;9837;48.888;8.998;2023-11-19T02:50:22;14.90;79.30
19403;DHT22;9837;48.888;8.998;2023-11-19T02:52:54;14.90;79.20
19403;DHT22;9837;48.888;8.998;2023-11-19T02:55:21;15.00;78.80
19403;DHT22;9837;48.888;8.998;2023-11-19T02:57:49;15.10;78.70
19403;DHT22;9837;48.888;8.998;2023-11-19T03:00:19;15.10;78.30
19403;DHT22;9837;48.888;8.998;2023-11-19T03:02:49;15.10;78.20
19403;DHT22;9837;48.888;8.998;2023-11-19T03:07:51;15.20;77.50
19403;DHT22;9837;48.888;8.998;2023-11-19T03:10:17;15.00;77.00
19403;DHT22;9837;48.888;8.998;2023-11-19T03:12:44;14.90;77.60
19403;DHT22;9837;48.888;8.998;2023-11-19T03:15:10;14.80;77.80
19403;DHT22;9837;48.888;8.998;2023-11-19T03:17:40;14.80;78.50
19403;DHT22;9837;48.888;8.998;2023-11-19T03:20:07;14.90;77.10
19403;DHT22;9837;48.888;8.998;2023-11-19T03:22:39;14.90;77.00
19403;DHT22;9837;48.888;8.998;2023-11-19T03:25:07;14.90;76.80
19403;DHT22;9837;48.888;8.998;2023-11-19T03:27:37;14.90;76.90
19403;DHT22;9837;48.888;8.998;2023-11-19T03:30:04;14.80;77.50
19403;DHT22;9837;48.888;8.998;2023-11-19T03:32:31;14.80;77.70
19403;DHT22;9837;48.888;8.998;2023-11-19T03:37:23;14.90;77.90
19403;DHT22;9837;48.888;8.998;2023-11-19T03:39:49;14.90;78.00
19403;DHT22;9837;48.888;8.998;2023-11-19T03:44:40;14.90;78.50
19403;DHT22;9837;48.888;8.998;2023-11-19T03:47:06;15.00;79.00
19403;DHT22;9837;48.888;8.998;2023-11-19T03:49:31;15.00;79.50
19403;DHT22;9837;48.888;8.998;2023-11-19T03:51:57;15.00;79.70
19403;DHT22;9837;48.888;8.998;2023-11-19T03:54:23;15.00;79.60
19403;DHT22;9837;48.888;8.998;2023-11-19T03:56:48;15.10;79.70
19403;DHT22;9837;48.888;8.998;2023-11-19T03:59:14;15.00;80.00
19403;DHT22;9837;48.888;8.998;2023-11-19T04:01:40;15.00;80.50
19403;DHT22;9837;48.888;8.998;2023-11-19T04:04:06;15.10;80.40
19403;DHT22;9837;48.888;8.998;2023-11-19T04:06:31;15.10;80.20
19403;DHT22;9837;48.888;8.998;2023-11-19T04:11:23;15.10;80.40
19403;DHT22;9837;48.888;8.998;2023-11-19T04:13:48;15.10;80.50
19403;DHT22;9837;48.888;8.998;2023-11-19T04:16:14;15.10;80.70
19403;DHT22;9837;48.888;8.998;2023-11-19T04:18:40;15.10;82.30
19403;DHT22;9837;48.888;8.998;2023-11-19T04:21:06;15.20;80.80
19403;DHT22;9837;48.888;8.998;2023-11-19T04:25:58;15.00;81.20
19403;DHT22;9837;48.888;8.998;2023-11-19T04:28:26;15.00;81.50
19403;DHT22;9837;48.888;8.998;2023-11-19T04:33:18;15.10;82.20
19403;DHT22;9837;48.888;8.998;2023-11-19T04:35:43;15.00;82.40
19403;DHT22;9837;48.888;8.998;2023-11-19T04:40:35;15.10;82.80
19403;DHT22;9837;48.888;8.998;2023-11-19T04:43:01;14.90;84.10
19403;DHT22;9837;48.888;8.998;2023-11-19T04:45:26;14.90;85.00
19403;DHT22;9837;48.888;8.998;2023-11-19T04:47:52;14.80;85.30
19403;DHT22;9837;48.888;8.998;2023-11-19T04:55:12;14.90;86.20
19403;DHT22;9837;48.888;8.998;2023-11-19T04:57:37;14.90;86.30
19403;DHT22;9837;48.888;8.998;2023-11-19T05:00:04;15.00;85.90
19403;DHT22;9837;48.888;8.998;2023-11-19T05:02:30;15.00;86.30
19403;DHT22;9837;48.888;8.998;2023-11-19T05:04:56;14.90;86.90
19403;DHT22;9837;48.888;8.998;2023-11-19T05:07:22;15.00;86.40
19403;DHT22;9837;48.888;8.998;2023-11-19T05:09:47;15.10;86.30
19403;DHT22;9837;48.888;8.998;2023-11-19T05:14:39;15.00;86.60
19403;DHT22;9837;48.888;8.998;2023-11-19T05:17:04;14.80;88.60
19403;DHT22;9837;48.888;8.998;2023-11-19T05:19:30;14.90;87.90
19403;DHT22;9837;48.888;8.998;2023-11-19T05:21:55;14.90;87.60
19403;DHT22;9837;48.888;8.998;2023-11-19T05:24:21;14.80;88.10
19403;DHT22;9837;48.888;8.998;2023-11-19T05:26:46;14.60;89.30
19403;DHT22;9837;48.888;8.998;2023-11-19T05:29:12;14.60;90.00
19403;DHT22;9837;48.888;8.998;2023-11-19T05:31:38;14.70;88.70
19403;DHT22;9837;48.888;8.998;2023-11-19T05:34:03;14.80;89.00
19403;DHT22;9837;48.888;8.998;2023-11-19T05:38:55;15.10;86.80
19403;DHT22;9837;48.888;8.998;2023-11-19T05:41:20;15.10;86.70
19403;DHT22;9837;48.888;8.998;2023-11-19T05:46:12;15.20;85.60
19403;DHT22;9837;48.888;8.998;2023-11-19T05:48:38;15.20;85.40
19403;DHT22;9837;48.888;8.998;2023-11-19T05:51:04;15.20;86.10
19403;DHT22;9837;48.888;8.998;2023-11-19T05:53:31;15.40;84.70
19403;DHT22;9837;48.888;8.998;2023-11-19T05:55:57;15.50;84.00
19403;DHT22;9837;48.888;8.998;2023-11-19T05:58:26;15.50;83.30
19403;DHT22;9837;48.888;8.998;2023-11-19T06:00:55;15.50;83.70
19403;DHT22;9837;48.888;8.998;2023-11-19T06:03:21;15.50;84.40
19403;DHT22;9837;48.888;8.998;2023-11-19T06:05:47;15.50;83.20
19403;DHT22;9837;48.888;8.998;2023-11-19T06:08:13;15.40;83.90
19403;DHT22;9837;48.888;8.998;2023-11-19T06:10:40;15.30;84.60
19403;DHT22;9837;48.888;8.998;2023-11-19T06:13:06;15.20;85.00
19403;DHT22;9837;48.888;8.998;2023-11-19T06:17:58;15.40;84.60
19403;DHT22;9837;48.888;8.998;2023-11-19T06:20:26;15.50;83.50
19403;DHT22;9837;48.888;8.998;2023-11-19T06:22:54;15.50;84.20
19403;DHT22;9837;48.888;8.998;2023-11-19T06:25:19;15.90;81.80
19403;DHT22;9837;48.888;8.998;2023-11-19T06:27:45;16.10;80.50
19403;DHT22;9837;48.888;8.998;2023-11-19T06:30:11;16.20;79.90
19403;DHT22;9837;48.888;8.998;2023-11-19T06:32:37;16.10;80.00
19403;DHT22;9837;48.888;8.998;2023-11-19T06:35:03;16.00;80.80
19403;DHT22;9837;48.888;8.998;2023-11-19T06:37:30;15.90;81.30
19403;DHT22;9837;48.888;8.998;2023-11-19T06:39:55;15.80;82.00
19403;DHT22;9837;48.888;8.998;2023-11-19T06:42:21;15.90;81.80
19403;DHT22;9837;48.888;8.998;2023-11-19T06:44:46;15.90;81.70
19403;DHT22;9837;48.888;8.998;2023-11-19T06:47:12;15.90;82.50
19403;DHT22;9837;48.888;8.998;2023-11-19T06:49:37;16.20;80.50
19403;DHT22;9837;48.888;8.998;2023-11-19T06:52:03;16.40;79.80
19403;DHT22;9837;48.888;8.998;2023-11-19T06:54:30;16.50;78.80
19403;DHT22;9837;48.888;8.998;2023-11-19T06:56:56;16.50;79.10
19403;DHT22;9837;48.888;8.998;2023-11-19T06:59:23;16.50;79.10
19403;DHT22;9837;48.888;8.998;2023-11-19T07:01:48;16.50;78.90
19403;DHT22;9837;48.888;8.998;2023-11-19T07:04:14;16.40;79.00
19403;DHT22;9837;48.888;8.998;2023-11-19T07:06:40;16.40;79.10
19403;DHT22;9837;48.888;8.998;2023-11-19T07:09:08;16.60;78.50
19403;DHT22;9837;48.888;8.998;2023-11-19T07:11:41;16.60;79.10
19403;DHT22;9837;48.888;8.998;2023-11-19T07:14:07;16.70;77.90
19403;DHT22;9837;48.888;8.998;2023-11-19T07:19:00;16.90;77.10
19403;DHT22;9837;48.888;8.998;2023-11-19T07:21:26;16.90;76.80
19403;DHT22;9837;48.888;8.998;2023-11-19T07:23:54;17.00;76.60
19403;DHT22;9837;48.888;8.998;2023-11-19T07:26:19;17.10;76.30
19403;DHT22;9837;48.888;8.998;2023-11-19T07:28:45;17.10;75.90
19403;DHT22;9837;48.888;8.998;2023-11-19T07:31:10;17.10;75.70
19403;DHT22;9837;48.888;8.998;2023-11-19T07:33:36;17.20;75.50
19403;DHT22;9837;48.888;8.998;2023-11-19T07:36:02;17.20;75.40
19403;DHT22;9837;48.888;8.998;2023-11-19T07:38:27;17.20;75.40
19403;DHT22;9837;48.888;8.998;2023-11-19T07:40:53;17.10;75.60
19403;DHT22;9837;48.888;8.998;2023-11-19T07:43:19;17.10;75.60
19403;DHT22;9837;48.888;8.998;2023-11-19T07:45:44;17.10;75.40
19403;DHT22;9837;48.888;8.998;2023-11-19T07:48:11;17.20;75.50
19403;DHT22;9837;48.888;8.998;2023-11-19T07:53:06;17.20;75.20
19403;DHT22;9837;48.888;8.998;2023-11-19T07:55:33;17.10;75.20
19403;DHT22;9837;48.888;8.998;2023-11-19T07:57:58;17.10;75.10
19403;DHT22;9837;48.888;8.998;2023-11-19T08:00:24;16.90;75.90
19403;DHT22;9837;48.888;8.998;2023-11-19T08:02:49;16.90;76.10
19403;DHT22;9837;48.888;8.998;2023-11-19T08:05:15;17.00;75.70
19403;DHT22;9837;48.888;8.998;2023-11-19T08:10:07;17.10;75.20
19403;DHT22;9837;48.888;8.998;2023-11-19T08:15:03;17.30;74.60
19403;DHT22;9837;48.888;8.998;2023-11-19T08:17:30;17.40;74.50
19403;DHT22;9837;48.888;8.998;2023-11-19T08:19:55;17.50;74.30
19403;DHT22;9837;48.888;8.998;2023-11-19T08:22:21;17.50;74.10
19403;DHT22;9837;48.888;8.998;2023-11-19T08:24:48;17.50;74.80
19403;DHT22;9837;48.888;8.998;2023-11-19T08:27:13;17.40;73.70
19403;DHT22;9837;48.888;8.998;2023-11-19T08:29:39;17.40;73.70
19403;DHT22;9837;48.888;8.998;2023-11-19T08:32:06;17.50;73.40
19403;DHT22;9837;48.888;8.998;2023-11-19T08:34:32;17.40;73.40
19403;DHT22;9837;48.888;8.998;2023-11-19T08:36:57;17.30;73.90
19403;DHT22;9837;48.888;8.998;2023-11-19T08:39:23;17.30;74.20
19403;DHT22;9837;48.888;8.998;2023-11-19T08:41:49;17.30;74.90
19403;DHT22;9837;48.888;8.998;2023-11-19T08:44:15;17.20;74.80
19403;DHT22;9837;48.888;8.998;2023-11-19T08:46:50;17.30;75.00
19403;DHT22;9837;48.888;8.998;2023-11-19T08:49:16;17.30;75.00
19403;DHT22;9837;48.888;8.998;2023-11-19T09:11:11;16.80;74.90
19403;DHT22;9837;48.888;8.998;2023-11-19T09:13:37;16.90;75.00
19403;DHT22;9837;48.888;8.998;2023-11-19T09:16:03;16.90;74.70
19403;DHT22;9837;48.888;8.998;2023-11-19T09:18:31;16.70;74.40
19403;DHT22;9837;48.888;8.998;2023-11-19T09:20:57;16.70;75.20
19403;DHT22;9837;48.888;8.998;2023-11-19T09:23:23;16.90;74.60
19403;DHT22;9837;48.888;8.998;2023-11-19T09:28:16;16.80;74.70
19403;DHT22;9837;48.888;8.998;2023-11-19T09:30:42;16.90;74.80
19403;DHT22;9837;48.888;8.998;2023-11-19T09:33:07;16.90;74.60
19403;DHT22;9837;48.888;8.998;2023-11-19T09:35:33;17.20;74.20
19403;DHT22;9837;48.888;8.998;2023-11-19T09:37:58;17.30;74.10
19403;DHT22;9837;48.888;8.998;2023-11-19T09:40:24;17.30;74.20
19403;DHT22;9837;48.888;8.998;2023-11-19T09:42:50;17.50;74.00
19403;DHT22;9837;48.888;8.998;2023-11-19T09:45:16;17.50;73.50
19403;DHT22;9837;48.888;8.998;2023-11-19T09:47:45;18.60;74.90
19403;DHT22;9837;48.888;8.998;2023-11-19T09:50:18;16.90;75.10
19403;DHT22;9837;48.888;8.998;2023-11-19T09:52:45;17.00;75.30
19403;DHT22;9837;48.888;8.998;2023-11-19T09:55:11;17.30;74.40
19403;DHT22;9837;48.888;8.998;2023-11-19T09:57:39;17.30;72.90
19403;DHT22;9837;48.888;8.998;2023-11-19T10:00:06;17.30;73.30
19403;DHT22;9837;48.888;8.998;2023-11-19T10:02:33;17.30;74.00
19403;DHT22;9837;48.888;8.998;2023-11-19T10:05:09;17.60;72.20
19403;DHT22;9837;48.888;8.998;2023-11-19T10:07:35;17.60;73.00
19403;DHT22;9837;48.888;8.998;2023-11-19T10:10:02;17.60;71.60
19403;DHT22;9837;48.888;8.998;2023-11-19T10:14:57;17.50;72.10
19403;DHT22;9837;48.888;8.998;2023-11-19T10:17:33;17.80;71.60
19403;DHT22;9837;48.888;8.998;2023-11-19T10:19:59;18.10;70.50
19403;DHT22;9837;48.888;8.998;2023-11-19T10:22:25;18.30;69.10
19403;DHT22;9837;48.888;8.998;2023-11-19T10:24:52;18.50;68.80
19403;DHT22;9837;48.888;8.998;2023-11-19T10:29:47;18.30;67.10
19403;DHT22;9837;48.888;8.998;2023-11-19T10:32:13;18.10;67.90
19403;DHT22;9837;48.888;8.998;2023-11-19T10:34:40;18.00;68.10
19403;DHT22;9837;48.888;8.998;2023-11-19T10:37:07;18.00;68.20
19403;DHT22;9837;48.888;8.998;2023-11-19T10:39:52;18.10;67.70
19403;DHT22;9837;48.888;8.998;2023-11-19T10:44:46;17.90;68.00
19403;DHT22;9837;48.888;8.998;2023-11-19T10:47:13;18.10;67.70
19403;DHT22;9837;48.888;8.998;2023-11-19T10:49:40;18.00;66.40
19403;DHT22;9837;48.888;8.998;2023-11-19T10:52:08;18.00;66.30
19403;DHT22;9837;48.888;8.998;2023-11-19T10:54:34;18.00;65.60
19403;DHT22;9837;48.888;8.998;2023-11-19T10:57:01;17.90;66.10
19403;DHT22;9837;48.888;8.998;2023-11-19T10:59:30;18.10;66.60
19403;DHT22;9837;48.888;8.998;2023-11-19T11:01:57;18.10;66.00
19403;DHT22;9837;48.888;8.998;2023-11-19T11:04:23;18.30;66.20
19403;DHT22;9837;48.888;8.998;2023-11-19T11:06:51;18.20;65.40
19403;DHT22;9837;48.888;8.998;2023-11-19T11:09:16;18.00;65.70
19403;DHT22;9837;48.888;8.998;2023-11-19T11:11:46;18.20;65.10
19403;DHT22;9837;48.888;8.998;2023-11-19T11:14:13;18.20;64.60
19403;DHT22;9837;48.888;8.998;2023-11-19T11:16:46;17.80;66.40
19403;DHT22;9837;48.888;8.998;2023-11-19T11:19:15;17.80;66.80
19403;DHT22;9837;48.888;8.998;2023-11-19T11:21:45;18.00;66.90
19403;DHT22;9837;48.888;8.998;2023-11-19T11:24:31;18.10;65.40
19403;DHT22;9837;48.888;8.998;2023-11-19T11:29:59;18.10;66.10
19403;DHT22;9837;48.888;8.998;2023-11-19T11:33:02;17.80;67.10
19403;DHT22;9837;48.888;8.998;2023-11-19T11:38:21;18.10;66.20
19403;DHT22;9837;48.888;8.998;2023-11-19T11:41:25;18.30;66.10
19403;DHT22;9837;48.888;8.998;2023-11-19T11:43:52;18.20;65.70
19403;DHT22;9837;48.888;8.998;2023-11-19T11:49:00;18.40;65.40
19403;DHT22;9837;48.888;8.998;2023-11-19T11:54:11;18.60;64.60
19403;DHT22;9837;48.888;8.998;2023-11-19T11:56:39;18.90;64.20
19403;DHT22;9837;48.888;8.998;2023-11-19T11:59:18;18.90;62.70
19403;DHT22;9837;48.888;8.998;2023-11-19T12:01:58;18.90;63.40
19403;DHT22;9837;48.888;8.998;2023-11-19T12:04:26;19.10;63.20
19403;DHT22;9837;48.888;8.998;2023-11-19T12:07:40;18.90;63.50
19403;DHT22;9837;48.888;8.998;2023-11-19T12:10:07;18.60;63.70
19403;DHT22;9837;48.888;8.998;2023-11-19T12:12:33;18.70;63.20
19403;DHT22;9837;48.888;8.998;2023-11-19T12:15:01;18.70;62.50
19403;DHT22;9837;48.888;8.998;2023-11-19T12:20:00;18.40;62.10
19403;DHT22;9837;48.888;8.998;2023-11-19T12:24:55;18.00;62.20
19403;DHT22;9837;48.888;8.998;2023-11-19T12:27:21;18.10;63.00
19403;DHT22;9837;48.888;8.998;2023-11-19T12:32:14;17.70;62.30
19403;DHT22;9837;48.888;8.998;2023-11-19T12:34:39;17.90;63.30
19403;DHT22;9837;48.888;8.998;2023-11-19T12:37:05;18.30;62.60
19403;DHT22;9837;48.888;8.998;2023-11-19T12:39:31;18.70;61.40
19403;DHT22;9837;48.888;8.998;2023-11-19T12:41:57;18.90;60.20
19403;DHT22;9837;48.888;8.998;2023-11-19T12:44:25;19.00;60.20
19403;DHT22;9837;48.888;8.998;2023-11-19T12:47:01;19.10;59.30
19403;DHT22;9837;48.888;8.998;2023-11-19T12:49:26;19.30;59.80
19403;DHT22;9837;48.888;8.998;2023-11-19T12:54:18;19.50;58.20
19403;DHT22;9837;48.888;8.998;2023-11-19T12:56:52;19.40;58.50
19403;DHT22;9837;48.888;8.998;2023-11-19T12:59:18;19.10;58.30
19403;DHT22;9837;48.888;8.998;2023-11-19T13:01:59;19.30;58.30
19403;DHT22;9837;48.888;8.998;2023-11-19T13:04:29;19.10;58.30
19403;DHT22;9837;48.888;8.998;2023-11-19T13:06:59;19.10;58.80
19403;DHT22;9837;48.888;8.998;2023-11-19T13:09:26;19.10;58.40
19403;DHT22;9837;48.888;8.998;2023-11-19T13:11:53;19.00;58.90
19403;DHT22;9837;48.888;8.998;2023-11-19T13:14:20;19.30;58.80
19403;DHT22;9837;48.888;8.998;2023-11-19T13:16:46;19.40;57.20
19403;DHT22;9837;48.888;8.998;2023-11-19T13:19:15;19.30;57.10
19403;DHT22;9837;48.888;8.998;2023-11-19T13:21:44;18.90;57.80
19403;DHT22;9837;48.888;8.998;2023-11-19T13:24:13;18.70;58.10
19403;DHT22;9837;48.888;8.998;2023-11-19T13:26:38;18.50;58.20
19403;DHT22;9837;48.888;8.998;2023-11-19T13:29:04;18.40;59.00
19403;DHT22;9837;48.888;8.998;2023-11-19T13:31:29;18.40;58.80
19403;DHT22;9837;48.888;8.998;2023-11-19T13:33:55;18.40;59.30
19403;DHT22;9837;48.888;8.998;2023-11-19T13:36:22;18.30;58.30
19403;DHT22;9837;48.888;8.998;2023-11-19T13:38:47;18.20;59.20
19403;DHT22;9837;48.888;8.998;2023-11-19T13:41:13;18.30;59.10
19403;DHT22;9837;48.888;8.998;2023-11-19T13:43:39;18.40;59.00
19403;DHT22;9837;48.888;8.998;2023-11-19T13:46:05;18.00;59.80
19403;DHT22;9837;48.888;8.998;2023-11-19T13:48:31;17.80;60.40
19403;DHT22;9837;48.888;8.998;2023-11-19T13:50:56;17.90;60.00
19403;DHT22;9837;48.888;8.998;2023-11-19T13:53:22;22.30;62.20
19403;DHT22;9837;48.888;8.998;2023-11-19T13:58:17;18.00;58.00
19403;DHT22;9837;48.888;8.998;2023-11-19T14:00:42;18.00;57.80
19403;DHT22;9837;48.888;8.998;2023-11-19T14:03:09;18.10;57.80
19403;DHT22;9837;48.888;8.998;2023-11-19T14:08:02;17.90;57.30
19403;DHT22;9837;48.888;8.998;2023-11-19T14:10:28;17.80;57.10
19403;DHT22;9837;48.888;8.998;2023-11-19T14:12:54;17.80;57.40
19403;DHT22;9837;48.888;8.998;2023-11-19T14:15:19;17.90;56.80
19403;DHT22;9837;48.888;8.998;2023-11-19T14:20:11;17.90;57.10
19403;DHT22;9837;48.888;8.998;2023-11-19T14:22:40;17.90;56.40
19403;DHT22;9837;48.888;8.998;2023-11-19T14:25:07;18.10;56.80
19403;DHT22;9837;48.888;8.998;2023-11-19T14:27:36;18.10;56.50
19403;DHT22;9837;48.888;8.998;2023-11-19T14:30:04;18.20;56.90
19403;DHT22;9837;48.888;8.998;2023-11-19T14:32:30;18.00;56.60
19403;DHT22;9837;48.888;8.998;2023-11-19T14:37:22;17.70;57.40
19403;DHT22;9837;48.888;8.998;2023-11-19T14:39:47;17.70;57.80
19403;DHT22;9837;48.888;8.998;2023-11-19T14:42:16;17.70;58.00
19403;DHT22;9837;48.888;8.998;2023-11-19T14:47:07;17.80;58.10
19403;DHT22;9837;48.888;8.998;2023-11-19T14:49:35;17.70;58.30
19403;DHT22;9837;48.888;8.998;2023-11-19T14:52:00;17.70;58.30
19403;DHT22;9837;48.888;8.998;2023-11-19T14:59:18;17.50;58.60
19403;DHT22;9837;48.888;8.998;2023-11-19T15:01:45;17.50;58.80
19403;DHT22;9837;48.888;8.998;2023-11-19T15:04:10;17.50;59.00
19403;DHT22;9837;48.888;8.998;2023-11-19T15:06:37;17.50;59.00
19403;DHT22;9837;48.888;8.998;2023-11-19T15:09:02;17.50;59.10
19403;DHT22;9837;48.888;8.998;2023-11-19T15:11:28;17.40;59.20
19403;DHT22;9837;48.888;8.998;2023-11-19T15:16:20;17.60;58.90
19403;DHT22;9837;48.888;8.998;2023-11-19T15:18:51;17.50;58.70
19403;DHT22;9837;48.888;8.998;2023-11-19T15:21:17;17.30;58.70
19403;DHT22;9837;48.888;8.998;2023-11-19T15:23:43;17.30;59.30
19403;DHT22;9837;48.888;8.998;2023-11-19T15:26:08;17.20;59.50
19403;DHT22;9837;48.888;8.998;2023-11-19T15:28:36;17.20;59.20
19403;DHT22;9837;48.888;8.998;2023-11-19T15:31:02;16.80;59.80
19403;DHT22;9837;48.888;8.998;2023-11-19T15:33:28;16.80;60.00
19403;DHT22;9837;48.888;8.998;2023-11-19T15:35:54;16.80;59.80
19403;DHT22;9837;48.888;8.998;2023-11-19T15:38:19;16.80;60.20
19403;DHT22;9837;48.888;8.998;2023-11-19T15:43:11;16.90;59.80
19403;DHT22;9837;48.888;8.998;2023-11-19T15:45:36;17.00;59.60
19403;DHT22;9837;48.888;8.998;2023-11-19T15:48:03;16.90;59.80
19403;DHT22;9837;48.888;8.998;2023-11-19T15:50:29;16.70;60.20
19403;DHT22;9837;48.888;8.998;2023-11-19T15:52:54;16.70;60.70
19403;DHT22;9837;48.888;8.998;2023-11-19T15:57:46;16.60;60.70
19403;DHT22;9837;48.888;8.998;2023-11-19T16:00:12;16.50;60.80
19403;DHT22;9837;48.888;8.998;2023-11-19T16:02:37;16.50;61.10
19403;DHT22;9837;48.888;8.998;2023-11-19T16:05:03;16.50;61.10
19403;DHT22;9837;48.888;8.998;2023-11-19T16:07:30;16.40;61.20
19403;DHT22;9837;48.888;8.998;2023-11-19T16:09:55;16.40;61.50
19403;DHT22;9837;48.888;8.998;2023-11-19T16:12:21;16.20;61.70
19403;DHT22;9837;48.888;8.998;2023-11-19T16:17:13;16.00;62.80
19403;DHT22;9837;48.888;8.998;2023-11-19T16:19:39;15.80;63.30
19403;DHT22;9837;48.888;8.998;2023-11-19T16:22:05;15.80;63.20
19403;DHT22;9837;48.888;8.998;2023-11-19T16:24:35;15.80;63.00
19403;DHT22;9837;48.888;8.998;2023-11-19T16:29:27;16.00;62.70
19403;DHT22;9837;48.888;8.998;2023-11-19T16:36:44;16.10;61.90
19403;DHT22;9837;48.888;8.998;2023-11-19T16:39:11;16.20;61.70
19403;DHT22;9837;48.888;8.998;2023-11-19T16:41:38;16.20;61.50
19403;DHT22;9837;48.888;8.998;2023-11-19T16:44:05;16.20;61.40
19403;DHT22;9837;48.888;8.998;2023-11-19T16:48:56;16.20;61.60
19403;DHT22;9837;48.888;8.998;2023-11-19T16:51:22;16.30;61.30
19403;DHT22;9837;48.888;8.998;2023-11-19T16:56:15;16.40;61.10
19403;DHT22;9837;48.888;8.998;2023-11-19T16:58:41;16.30;60.80
19403;DHT22;9837;48.888;8.998;2023-11-19T17:01:10;16.10;61.00
19403;DHT22;9837;48.888;8.998;2023-11-19T17:03:39;15.90;61.90
19403;DHT22;9837;48.888;8.998;2023-11-19T17:06:05;15.90;62.20
19403;DHT22;9837;48.888;8.998;2023-11-19T17:08:31;16.00;62.40
19403;DHT22;9837;48.888;8.998;2023-11-19T17:11:04;16.20;61.70
19403;DHT22;9837;48.888;8.998;2023-11-19T17:13:33;16.30;61.30
19403;DHT22;9837;48.888;8.998;2023-11-19T17:15:59;16.30;61.30
19403;DHT22;9837;48.888;8.998;2023-11-19T17:18:25;16.20;61.70
19403;DHT22;9837;48.888;8.998;2023-11-19T17:20:50;16.30;61.40
19403;DHT22;9837;48.888;8.998;2023-11-19T17:25:44;16.60;60.10
19403;DHT22;9837;48.888;8.998;2023-11-19T17:28:09;16.60;59.90
19403;DHT22;9837;48.888;8.998;2023-11-19T17:30:36;16.70;60.00
19403;DHT22;9837;48.888;8.998;2023-11-19T17:33:02;16.60;60.00
19403;DHT22;9837;48.888;8.998;2023-11-19T17:35:31;16.50;60.00
19403;DHT22;9837;48.888;8.998;2023-11-19T17:37:58;16.60;59.90
19403;DHT22;9837;48.888;8.998;2023-11-19T17:40:24;16.50;59.80
19403;DHT22;9837;48.888;8.998;2023-11-19T17:42:54;16.60;59.90
19403;DHT22;9837;48.888;8.998;2023-11-19T17:45:19;16.50;59.90
19403;DHT22;9837;48.888;8.998;2023-11-19T17:47:45;16.40;59.90
19403;DHT22;9837;48.888;8.998;2023-11-19T17:50:11;16.40;60.10
19403;DHT22;9837;48.888;8.998;2023-11-19T17:52:37;16.50;59.90
19403;DHT22;9837;48.888;8.998;2023-11-19T17:55:03;16.40;59.80
19403;DHT22;9837;48.888;8.998;2023-11-19T17:57:29;16.40;60.00
19403;DHT22;9837;48.888;8.998;2023-11-19T17:59:55;16.30;59.80
19403;DHT22;9837;48.888;8.998;2023-11-19T18:02:21;16.40;59.70
19403;DHT22;9837;48.888;8.998;2023-11-19T18:04:46;16.30;59.70
19403;DHT22;9837;48.888;8.998;2023-11-19T18:07:15;16.30;59.80
19403;DHT22;9837;48.888;8.998;2023-11-19T18:12:09;16.40;59.40
19403;DHT22;9837;48.888;8.998;2023-11-19T18:14:38;16.50;59.30
19403;DHT22;9837;48.888;8.998;2023-11-19T18:17:04;16.70;59.10
19403;DHT22;9837;48.888;8.998;2023-11-19T18:19:30;16.80;59.10
19403;DHT22;9837;48.888;8.998;2023-11-19T18:26:49;16.40;61.00
19403;DHT22;9837;48.888;8.998;2023-11-19T18:29:15;16.40;63.50